Burton, TX (77835)

8:57 PM CST on February 12, 2016 (GMT -0600)
Four Labs Vineyards | | Change Station
CLOSE
Current Station
Personal Weather Station
Location: Burton, TX
Elevation: 492 ft
Nearby Weather Stations

Elev 492 ft 30.18 °N, 96.65 °W | Updated 4 seconds ago

Clear
Clear
65.8 °F
Feels Like 65.8 °F
N
0.9
Wind Variable Wind from NNW
Gusts 2.0 mph

Today
High -- | Low -- °F
--% Chance of Precip.
Yesterday
High -- | Low -- °F
Precip. -- in
Pressure 30.26 in
Visibility 10.0 miles
Clouds Clear
Dew Point 52 °F
Humidity 61%
Rainfall 0.00 in
Snow Depth Not available.
7:09 AM 6:12 PM
Waxing Crescent, 26% visible
METAR K11R 130235Z AUTO 00000KT 10SM CLR 17/12 A3026 RMK AO2 T01670117
Pressure 30.26 in
Visibility 10.0 miles
Clouds Clear
Dew Point 52 °F
Humidity 61%
Rainfall 0.00 in
Snow Depth Not available.
7:09 AM 6:12 PM
Waxing Crescent, 26% visible
METAR K11R 130235Z AUTO 00000KT 10SM CLR 17/12 A3026 RMK AO2 T01670117

10-Day Weather Forecast

Almanac

Astronomy

Feb. 12, 2016 Rise Set
Actual Time
Civil Twilight
Nautical Twilight
Astronomical Twilight
Moon
Length of Visible Light
Length of Day
Tomorrow will be .
, % of the Moon is Illuminated

Today's Extremes

State Highs State Lows

Community

WunderPhotos

Upload Photos

1,892,464 photos uploaded!

WunderBlog® & News

Nearby

Air Quality

  Air Quality AQ Index Pollutant
Not available.

Snow Depth

Station Depth Elevation

Earthquake Activity

City Distance Mag. Time & Date
Minimum magnitude displayed is 2.5.

Coastal Water Temperatures

Place Temperature

Stations

Nearby Weather Stations

Station Location Temp. Windchill Dew Point Humidity Wind Precip. Elev Updated Type
                   

Watches & Warnings

There are currently no watches in effect.